sensor_id;sensor_type;location;lat;lon;timestamp;P1;durP1;ratioP1;P2;durP2;ratioP2
67528;SDS011;54366;51.980;5.856;2023-04-01T00:00:21;2.53;;;1.00;;
67528;SDS011;54366;51.980;5.856;2023-04-01T00:02:48;3.10;;;1.20;;
67528;SDS011;54366;51.980;5.856;2023-04-01T00:05:20;2.60;;;1.00;;
67528;SDS011;54366;51.980;5.856;2023-04-01T00:07:53;2.97;;;0.90;;
67528;SDS011;54366;51.980;5.856;2023-04-01T00:10:26;2.35;;;0.90;;
67528;SDS011;54366;51.980;5.856;2023-04-01T00:12:59;1.77;;;0.80;;
67528;SDS011;54366;51.980;5.856;2023-04-01T00:15:26;1.73;;;1.00;;
67528;SDS011;54366;51.980;5.856;2023-04-01T00:17:59;2.35;;;1.00;;
67528;SDS011;54366;51.980;5.856;2023-04-01T00:20:26;1.85;;;1.20;;
67528;SDS011;54366;51.980;5.856;2023-04-01T00:23:00;2.70;;;1.15;;
67528;SDS011;54366;51.980;5.856;2023-04-01T00:25:33;1.83;;;0.80;;
67528;SDS011;54366;51.980;5.856;2023-04-01T00:28:06;1.90;;;1.10;;
67528;SDS011;54366;51.980;5.856;2023-04-01T00:30:33;1.73;;;0.90;;
67528;SDS011;54366;51.980;5.856;2023-04-01T00:33:07;2.90;;;1.35;;
67528;SDS011;54366;51.980;5.856;2023-04-01T00:35:40;2.45;;;1.48;;
67528;SDS011;54366;51.980;5.856;2023-04-01T00:38:13;1.55;;;1.40;;
67528;SDS011;54366;51.980;5.856;2023-04-01T00:40:46;2.80;;;1.63;;
67528;SDS011;54366;51.980;5.856;2023-04-01T00:43:20;1.98;;;1.55;;
67528;SDS011;54366;51.980;5.856;2023-04-01T00:45:49;2.00;;;1.70;;
67528;SDS011;54366;51.980;5.856;2023-04-01T00:48:23;2.22;;;1.77;;
67528;SDS011;54366;51.980;5.856;2023-04-01T00:51:11;2.65;;;2.17;;
67528;SDS011;54366;51.980;5.856;2023-04-01T00:54:01;3.33;;;2.22;;
67528;SDS011;54366;51.980;5.856;2023-04-01T00:56:44;2.67;;;2.40;;
67528;SDS011;54366;51.980;5.856;2023-04-01T00:59:26;4.05;;;2.72;;
67528;SDS011;54366;51.980;5.856;2023-04-01T01:02:03;3.38;;;3.05;;
67528;SDS011;54366;51.980;5.856;2023-04-01T01:04:39;3.85;;;3.20;;
67528;SDS011;54366;51.980;5.856;2023-04-01T01:08:39;3.97;;;3.50;;
67528;SDS011;54366;51.980;5.856;2023-04-01T01:10:29;5.50;;;4.43;;
67528;SDS011;54366;51.980;5.856;2023-04-01T01:13:17;4.93;;;4.15;;
67528;SDS011;54366;51.980;5.856;2023-04-01T01:16:10;5.70;;;5.15;;
67528;SDS011;54366;51.980;5.856;2023-04-01T01:19:06;6.10;;;5.25;;
67528;SDS011;54366;51.980;5.856;2023-04-01T01:22:28;4.97;;;4.53;;
67528;SDS011;54366;51.980;5.856;2023-04-01T01:28:57;7.97;;;5.50;;
67528;SDS011;54366;51.980;5.856;2023-04-01T01:33:19;5.93;;;5.43;;
67528;SDS011;54366;51.980;5.856;2023-04-01T01:35:48;6.68;;;5.97;;
67528;SDS011;54366;51.980;5.856;2023-04-01T01:38:23;7.68;;;6.80;;
67528;SDS011;54366;51.980;5.856;2023-04-01T01:41:04;7.45;;;6.15;;
67528;SDS011;54366;51.980;5.856;2023-04-01T01:43:40;6.43;;;5.82;;
67528;SDS011;54366;51.980;5.856;2023-04-01T01:46:21;6.20;;;5.60;;
67528;SDS011;54366;51.980;5.856;2023-04-01T01:48:57;6.40;;;5.78;;
67528;SDS011;54366;51.980;5.856;2023-04-01T01:51:33;8.43;;;6.72;;
67528;SDS011;54366;51.980;5.856;2023-04-01T01:54:11;5.88;;;5.28;;
67528;SDS011;54366;51.980;5.856;2023-04-01T01:59:30;7.22;;;4.60;;
67528;SDS011;54366;51.980;5.856;2023-04-01T02:02:06;7.90;;;4.78;;
67528;SDS011;54366;51.980;5.856;2023-04-01T02:04:42;8.32;;;4.10;;
67528;SDS011;54366;51.980;5.856;2023-04-01T02:07:21;9.30;;;4.80;;
67528;SDS011;54366;51.980;5.856;2023-04-01T02:09:58;8.38;;;4.68;;
67528;SDS011;54366;51.980;5.856;2023-04-01T02:12:31;9.05;;;4.95;;
67528;SDS011;54366;51.980;5.856;2023-04-01T02:15:08;5.32;;;3.95;;
67528;SDS011;54366;51.980;5.856;2023-04-01T02:17:44;7.93;;;4.30;;
67528;SDS011;54366;51.980;5.856;2023-04-01T02:20:22;5.70;;;3.45;;
67528;SDS011;54366;51.980;5.856;2023-04-01T02:22:56;7.25;;;3.30;;
67528;SDS011;54366;51.980;5.856;2023-04-01T02:25:33;8.52;;;4.78;;
67528;SDS011;54366;51.980;5.856;2023-04-01T02:28:09;6.50;;;3.00;;
67528;SDS011;54366;51.980;5.856;2023-04-01T02:30:39;5.88;;;2.83;;
67528;SDS011;54366;51.980;5.856;2023-04-01T02:33:12;4.63;;;2.55;;
67528;SDS011;54366;51.980;5.856;2023-04-01T02:35:45;9.40;;;3.88;;
67528;SDS011;54366;51.980;5.856;2023-04-01T02:38:12;9.90;;;5.13;;
67528;SDS011;54366;51.980;5.856;2023-04-01T02:40:49;7.38;;;3.90;;
67528;SDS011;54366;51.980;5.856;2023-04-01T02:43:24;9.00;;;3.83;;
67528;SDS011;54366;51.980;5.856;2023-04-01T02:45:57;9.30;;;4.10;;
67528;SDS011;54366;51.980;5.856;2023-04-01T02:48:30;4.75;;;2.50;;
67528;SDS011;54366;51.980;5.856;2023-04-01T02:50:57;6.25;;;3.38;;
67528;SDS011;54366;51.980;5.856;2023-04-01T02:53:36;5.85;;;2.72;;
67528;SDS011;54366;51.980;5.856;2023-04-01T02:56:09;4.93;;;2.63;;
67528;SDS011;54366;51.980;5.856;2023-04-01T02:58:35;5.03;;;2.90;;
67528;SDS011;54366;51.980;5.856;2023-04-01T03:01:08;2.50;;;2.05;;
67528;SDS011;54366;51.980;5.856;2023-04-01T03:03:35;4.47;;;3.30;;
67528;SDS011;54366;51.980;5.856;2023-04-01T03:06:08;5.43;;;3.13;;
67528;SDS011;54366;51.980;5.856;2023-04-01T03:08:43;3.10;;;2.70;;
67528;SDS011;54366;51.980;5.856;2023-04-01T03:11:10;3.30;;;3.00;;
67528;SDS011;54366;51.980;5.856;2023-04-01T03:13:43;3.08;;;2.78;;
67528;SDS011;54366;51.980;5.856;2023-04-01T03:16:16;2.50;;;2.30;;
67528;SDS011;54366;51.980;5.856;2023-04-01T03:18:50;3.47;;;2.75;;
67528;SDS011;54366;51.980;5.856;2023-04-01T03:21:24;2.70;;;2.50;;
67528;SDS011;54366;51.980;5.856;2023-04-01T03:23:57;2.72;;;2.53;;
67528;SDS011;54366;51.980;5.856;2023-04-01T03:26:30;2.78;;;2.58;;
67528;SDS011;54366;51.980;5.856;2023-04-01T03:29:04;3.25;;;2.72;;
67528;SDS011;54366;51.980;5.856;2023-04-01T03:31:37;3.85;;;3.55;;
67528;SDS011;54366;51.980;5.856;2023-04-01T03:34:11;3.40;;;3.13;;
67528;SDS011;54366;51.980;5.856;2023-04-01T03:36:43;3.13;;;2.92;;
67528;SDS011;54366;51.980;5.856;2023-04-01T03:39:17;4.20;;;3.80;;
67528;SDS011;54366;51.980;5.856;2023-04-01T03:41:54;4.03;;;3.55;;
67528;SDS011;54366;51.980;5.856;2023-04-01T03:44:31;4.68;;;3.50;;
67528;SDS011;54366;51.980;5.856;2023-04-01T03:47:05;4.63;;;4.22;;
67528;SDS011;54366;51.980;5.856;2023-04-01T03:49:32;4.88;;;4.38;;
67528;SDS011;54366;51.980;5.856;2023-04-01T03:52:08;4.80;;;4.40;;
67528;SDS011;54366;51.980;5.856;2023-04-01T03:54:42;4.70;;;4.20;;
67528;SDS011;54366;51.980;5.856;2023-04-01T03:57:16;4.60;;;4.20;;
67528;SDS011;54366;51.980;5.856;2023-04-01T04:02:23;3.53;;;3.22;;
67528;SDS011;54366;51.980;5.856;2023-04-01T04:04:51;3.95;;;3.08;;
67528;SDS011;54366;51.980;5.856;2023-04-01T04:07:27;3.05;;;2.85;;
67528;SDS011;54366;51.980;5.856;2023-04-01T04:10:03;4.38;;;3.97;;
67528;SDS011;54366;51.980;5.856;2023-04-01T04:12:36;4.00;;;3.50;;
67528;SDS011;54366;51.980;5.856;2023-04-01T04:15:10;4.68;;;4.22;;
67528;SDS011;54366;51.980;5.856;2023-04-01T04:17:44;6.10;;;5.50;;
67528;SDS011;54366;51.980;5.856;2023-04-01T04:20:11;5.60;;;4.72;;
67528;SDS011;54366;51.980;5.856;2023-04-01T04:22:44;6.43;;;4.97;;
67528;SDS011;54366;51.980;5.856;2023-04-01T04:25:17;4.70;;;4.28;;
67528;SDS011;54366;51.980;5.856;2023-04-01T04:27:44;4.85;;;3.95;;
67528;SDS011;54366;51.980;5.856;2023-04-01T04:30:17;5.70;;;5.13;;
67528;SDS011;54366;51.980;5.856;2023-04-01T04:32:50;4.65;;;4.22;;
67528;SDS011;54366;51.980;5.856;2023-04-01T04:35:16;4.43;;;4.03;;
67528;SDS011;54366;51.980;5.856;2023-04-01T04:37:48;3.85;;;3.50;;
67528;SDS011;54366;51.980;5.856;2023-04-01T04:40:22;3.60;;;3.30;;
67528;SDS011;54366;51.980;5.856;2023-04-01T04:42:54;3.65;;;2.97;;
67528;SDS011;54366;51.980;5.856;2023-04-01T04:45:27;3.60;;;3.30;;
67528;SDS011;54366;51.980;5.856;2023-04-01T04:48:02;3.90;;;3.60;;
67528;SDS011;54366;51.980;5.856;2023-04-01T04:50:35;3.58;;;3.28;;
67528;SDS011;54366;51.980;5.856;2023-04-01T04:53:02;4.53;;;3.97;;
67528;SDS011;54366;51.980;5.856;2023-04-01T04:55:35;4.20;;;3.80;;
67528;SDS011;54366;51.980;5.856;2023-04-01T04:58:37;5.32;;;4.93;;
67528;SDS011;54366;51.980;5.856;2023-04-01T05:01:16;4.57;;;4.18;;
67528;SDS011;54366;51.980;5.856;2023-04-01T05:03:49;4.80;;;4.40;;
67528;SDS011;54366;51.980;5.856;2023-04-01T05:06:16;4.10;;;3.72;;
67528;SDS011;54366;51.980;5.856;2023-04-01T05:08:49;4.53;;;4.13;;
67528;SDS011;54366;51.980;5.856;2023-04-01T05:11:23;4.05;;;3.75;;
67528;SDS011;54366;51.980;5.856;2023-04-01T05:13:50;4.03;;;3.72;;
67528;SDS011;54366;51.980;5.856;2023-04-01T05:16:23;4.15;;;3.50;;
67528;SDS011;54366;51.980;5.856;2023-04-01T05:18:58;3.80;;;3.50;;
67528;SDS011;54366;51.980;5.856;2023-04-01T05:21:24;3.50;;;3.30;;
67528;SDS011;54366;51.980;5.856;2023-04-01T05:23:58;4.70;;;4.30;;
67528;SDS011;54366;51.980;5.856;2023-04-01T05:26:31;4.65;;;4.25;;
67528;SDS011;54366;51.980;5.856;2023-04-01T05:29:05;5.35;;;4.85;;
67528;SDS011;54366;51.980;5.856;2023-04-01T05:31:38;4.40;;;3.95;;
67528;SDS011;54366;51.980;5.856;2023-04-01T05:34:12;3.65;;;3.35;;
67528;SDS011;54366;51.980;5.856;2023-04-01T05:36:45;3.67;;;3.38;;
67528;SDS011;54366;51.980;5.856;2023-04-01T05:39:19;3.15;;;2.95;;
67528;SDS011;54366;51.980;5.856;2023-04-01T05:41:45;2.70;;;2.50;;
67528;SDS011;54366;51.980;5.856;2023-04-01T05:44:17;2.80;;;2.60;;
67528;SDS011;54366;51.980;5.856;2023-04-01T05:47:10;2.95;;;2.75;;
67528;SDS011;54366;51.980;5.856;2023-04-01T05:49:43;3.72;;;3.42;;
67528;SDS011;54366;51.980;5.856;2023-04-01T05:52:16;4.57;;;4.18;;
67528;SDS011;54366;51.980;5.856;2023-04-01T05:55:03;3.90;;;3.60;;
67528;SDS011;54366;51.980;5.856;2023-04-01T05:57:37;4.70;;;4.30;;
67528;SDS011;54366;51.980;5.856;2023-04-01T06:00:11;5.88;;;5.28;;
67528;SDS011;54366;51.980;5.856;2023-04-01T06:02:38;8.07;;;7.28;;
67528;SDS011;54366;51.980;5.856;2023-04-01T06:05:18;7.47;;;6.13;;
67528;SDS011;54366;51.980;5.856;2023-04-01T06:08:01;7.53;;;6.43;;
67528;SDS011;54366;51.980;5.856;2023-04-01T06:11:03;10.57;;;9.32;;
67528;SDS011;54366;51.980;5.856;2023-04-01T06:27:31;10.85;;;9.18;;
67528;SDS011;54366;51.980;5.856;2023-04-01T06:30:38;13.02;;;10.93;;
67528;SDS011;54366;51.980;5.856;2023-04-01T06:37:11;9.93;;;8.00;;
67528;SDS011;54366;51.980;5.856;2023-04-01T06:40:21;8.98;;;7.30;;
67528;SDS011;54366;51.980;5.856;2023-04-01T06:46:57;7.20;;;5.75;;
67528;SDS011;54366;51.980;5.856;2023-04-01T06:53:13;7.00;;;5.63;;
67528;SDS011;54366;51.980;5.856;2023-04-01T06:56:44;5.28;;;4.78;;
67528;SDS011;54366;51.980;5.856;2023-04-01T06:59:27;5.20;;;4.70;;
67528;SDS011;54366;51.980;5.856;2023-04-01T07:02:10;3.53;;;3.22;;
67528;SDS011;54366;51.980;5.856;2023-04-01T07:05:01;3.00;;;2.72;;
67528;SDS011;54366;51.980;5.856;2023-04-01T07:07:33;3.25;;;2.95;;
67528;SDS011;54366;51.980;5.856;2023-04-01T07:13:30;2.38;;;2.17;;
67528;SDS011;54366;51.980;5.856;2023-04-01T07:16:42;2.30;;;2.10;;
67528;SDS011;54366;51.980;5.856;2023-04-01T07:19:36;2.20;;;2.00;;
67528;SDS011;54366;51.980;5.856;2023-04-01T07:25:36;2.30;;;2.10;;
67528;SDS011;54366;51.980;5.856;2023-04-01T07:28:40;1.83;;;1.73;;
67528;SDS011;54366;51.980;5.856;2023-04-01T07:31:26;1.45;;;1.35;;
67528;SDS011;54366;51.980;5.856;2023-04-01T07:34:17;1.40;;;1.30;;
67528;SDS011;54366;51.980;5.856;2023-04-01T07:37:05;1.15;;;1.05;;
67528;SDS011;54366;51.980;5.856;2023-04-01T07:40:45;1.30;;;1.20;;
67528;SDS011;54366;51.980;5.856;2023-04-01T07:44:07;0.88;;;0.88;;
67528;SDS011;54366;51.980;5.856;2023-04-01T07:46:50;0.98;;;0.80;;
67528;SDS011;54366;51.980;5.856;2023-04-01T07:49:50;1.02;;;1.02;;
67528;SDS011;54366;51.980;5.856;2023-04-01T07:52:50;0.80;;;0.75;;
67528;SDS011;54366;51.980;5.856;2023-04-01T07:56:06;0.75;;;0.75;;
67528;SDS011;54366;51.980;5.856;2023-04-01T07:59:03;1.10;;;1.00;;
67528;SDS011;54366;51.980;5.856;2023-04-01T08:05:19;2.40;;;1.75;;
67528;SDS011;54366;51.980;5.856;2023-04-01T08:08:53;1.33;;;1.23;;
67528;SDS011;54366;51.980;5.856;2023-04-01T08:13:11;1.20;;;1.10;;
67528;SDS011;54366;51.980;5.856;2023-04-01T08:15:18;1.30;;;1.20;;
67528;SDS011;54366;51.980;5.856;2023-04-01T08:18:37;0.75;;;0.75;;
67528;SDS011;54366;51.980;5.856;2023-04-01T08:21:32;0.88;;;0.88;;
67528;SDS011;54366;51.980;5.856;2023-04-01T08:24:18;0.80;;;0.70;;
67528;SDS011;54366;51.980;5.856;2023-04-01T08:27:16;0.50;;;0.40;;
67528;SDS011;54366;51.980;5.856;2023-04-01T08:29:59;0.40;;;0.40;;
67528;SDS011;54366;51.980;5.856;2023-04-01T08:32:56;0.70;;;0.40;;
67528;SDS011;54366;51.980;5.856;2023-04-01T08:39:09;0.60;;;0.50;;
67528;SDS011;54366;51.980;5.856;2023-04-01T08:45:15;0.40;;;0.40;;
67528;SDS011;54366;51.980;5.856;2023-04-01T08:48:08;0.60;;;0.60;;
67528;SDS011;54366;51.980;5.856;2023-04-01T09:00:53;0.70;;;0.70;;
67528;SDS011;54366;51.980;5.856;2023-04-01T09:06:49;1.00;;;1.00;;
67528;SDS011;54366;51.980;5.856;2023-04-01T09:09:44;1.25;;;0.95;;
67528;SDS011;54366;51.980;5.856;2023-04-01T09:19:40;0.70;;;0.70;;
67528;SDS011;54366;51.980;5.856;2023-04-01T09:22:50;1.20;;;1.10;;
67528;SDS011;54366;51.980;5.856;2023-04-01T09:32:23;1.60;;;1.20;;
67528;SDS011;54366;51.980;5.856;2023-04-01T09:35:46;1.20;;;1.10;;
67528;SDS011;54366;51.980;5.856;2023-04-01T09:38:30;1.00;;;1.00;;
67528;SDS011;54366;51.980;5.856;2023-04-01T09:41:39;1.20;;;1.10;;
67528;SDS011;54366;51.980;5.856;2023-04-01T09:45:09;1.67;;;1.10;;
67528;SDS011;54366;51.980;5.856;2023-04-01T09:51:20;1.73;;;1.63;;
67528;SDS011;54366;51.980;5.856;2023-04-01T09:54:24;1.52;;;1.40;;
67528;SDS011;54366;51.980;5.856;2023-04-01T10:01:42;1.90;;;1.70;;
67528;SDS011;54366;51.980;5.856;2023-04-01T10:08:06;2.10;;;2.00;;
67528;SDS011;54366;51.980;5.856;2023-04-01T10:16:25;2.28;;;2.08;;
67528;SDS011;54366;51.980;5.856;2023-04-01T10:18:32;2.28;;;2.08;;
67528;SDS011;54366;51.980;5.856;2023-04-01T10:21:37;3.20;;;2.90;;
67528;SDS011;54366;51.980;5.856;2023-04-01T10:24:51;2.95;;;2.70;;
67528;SDS011;54366;51.980;5.856;2023-04-01T10:27:49;3.05;;;2.85;;
67528;SDS011;54366;51.980;5.856;2023-04-01T10:44:43;4.80;;;4.40;;
67528;SDS011;54366;51.980;5.856;2023-04-01T10:48:09;5.05;;;4.65;;
67528;SDS011;54366;51.980;5.856;2023-04-01T10:51:11;5.88;;;5.38;;
67528;SDS011;54366;51.980;5.856;2023-04-01T10:54:04;6.20;;;5.60;;
67528;SDS011;54366;51.980;5.856;2023-04-01T11:08:38;7.50;;;6.72;;
67528;SDS011;54366;51.980;5.856;2023-04-01T11:15:31;6.30;;;5.70;;
67528;SDS011;54366;51.980;5.856;2023-04-01T11:21:50;6.40;;;5.80;;
67528;SDS011;54366;51.980;5.856;2023-04-01T11:25:05;6.50;;;5.90;;
67528;SDS011;54366;51.980;5.856;2023-04-01T11:31:23;2.30;;;2.10;;
67528;SDS011;54366;51.980;5.856;2023-04-01T11:44:24;1.25;;;1.15;;
67528;SDS011;54366;51.980;5.856;2023-04-01T11:47:57;1.30;;;1.20;;
67528;SDS011;54366;51.980;5.856;2023-04-01T11:51:08;1.40;;;1.30;;
67528;SDS011;54366;51.980;5.856;2023-04-01T11:53:44;1.73;;;1.30;;
67528;SDS011;54366;51.980;5.856;2023-04-01T11:57:19;1.30;;;1.20;;
67528;SDS011;54366;51.980;5.856;2023-04-01T12:00:51;1.52;;;1.30;;
67528;SDS011;54366;51.980;5.856;2023-04-01T12:04:33;1.17;;;1.08;;
67528;SDS011;54366;51.980;5.856;2023-04-01T12:07:06;0.60;;;0.60;;
67528;SDS011;54366;51.980;5.856;2023-04-01T12:10:02;0.82;;;0.60;;
67528;SDS011;54366;51.980;5.856;2023-04-01T12:12:52;1.27;;;1.17;;
67528;SDS011;54366;51.980;5.856;2023-04-01T12:16:23;0.70;;;0.70;;
67528;SDS011;54366;51.980;5.856;2023-04-01T12:19:48;1.30;;;1.02;;
67528;SDS011;54366;51.980;5.856;2023-04-01T12:22:41;2.10;;;1.00;;
67528;SDS011;54366;51.980;5.856;2023-04-01T12:25:45;1.40;;;1.30;;
67528;SDS011;54366;51.980;5.856;2023-04-01T12:28:47;2.03;;;1.30;;
67528;SDS011;54366;51.980;5.856;2023-04-01T12:38:44;1.77;;;1.40;;
67528;SDS011;54366;51.980;5.856;2023-04-01T12:42:05;1.90;;;1.63;;
67528;SDS011;54366;51.980;5.856;2023-04-01T12:45:05;1.60;;;1.50;;
67528;SDS011;54366;51.980;5.856;2023-04-01T13:09:22;2.63;;;2.42;;
67528;SDS011;54366;51.980;5.856;2023-04-01T13:15:24;2.72;;;2.53;;
67528;SDS011;54366;51.980;5.856;2023-04-01T13:21:14;2.55;;;2.35;;
67528;SDS011;54366;51.980;5.856;2023-04-01T13:24:21;2.30;;;2.10;;
67528;SDS011;54366;51.980;5.856;2023-04-01T13:27:22;2.72;;;2.53;;
67528;SDS011;54366;51.980;5.856;2023-04-01T13:30:25;3.08;;;2.83;;
67528;SDS011;54366;51.980;5.856;2023-04-01T13:33:20;1.95;;;1.85;;
67528;SDS011;54366;51.980;5.856;2023-04-01T13:43:04;2.65;;;2.45;;
67528;SDS011;54366;51.980;5.856;2023-04-01T13:46:02;2.40;;;2.20;;
67528;SDS011;54366;51.980;5.856;2023-04-01T13:49:32;3.45;;;2.13;;
67528;SDS011;54366;51.980;5.856;2023-04-01T13:55:31;1.73;;;1.60;;
67528;SDS011;54366;51.980;5.856;2023-04-01T13:58:26;1.40;;;1.30;;
67528;SDS011;54366;51.980;5.856;2023-04-01T14:01:41;1.20;;;1.10;;
67528;SDS011;54366;51.980;5.856;2023-04-01T14:04:41;1.40;;;1.30;;
67528;SDS011;54366;51.980;5.856;2023-04-01T14:07:40;1.02;;;1.00;;
67528;SDS011;54366;51.980;5.856;2023-04-01T14:17:41;0.52;;;0.52;;
67528;SDS011;54366;51.980;5.856;2023-04-01T14:45:50;0.93;;;0.85;;
67528;SDS011;54366;51.980;5.856;2023-04-01T14:52:27;0.70;;;0.60;;
67528;SDS011;54366;51.980;5.856;2023-04-01T14:55:15;0.98;;;0.70;;
67528;SDS011;54366;51.980;5.856;2023-04-01T14:58:18;0.90;;;0.90;;
67528;SDS011;54366;51.980;5.856;2023-04-01T15:01:08;0.70;;;0.63;;
67528;SDS011;54366;51.980;5.856;2023-04-01T15:04:09;0.90;;;0.90;;
67528;SDS011;54366;51.980;5.856;2023-04-01T15:07:21;0.52;;;0.52;;
67528;SDS011;54366;51.980;5.856;2023-04-01T15:10:49;0.70;;;0.70;;
67528;SDS011;54366;51.980;5.856;2023-04-01T15:13:46;1.15;;;0.60;;
67528;SDS011;54366;51.980;5.856;2023-04-01T15:17:40;1.70;;;0.90;;
67528;SDS011;54366;51.980;5.856;2023-04-01T15:20:15;1.98;;;1.77;;
67528;SDS011;54366;51.980;5.856;2023-04-01T15:29:19;2.60;;;2.40;;
67528;SDS011;54366;51.980;5.856;2023-04-01T15:32:31;3.60;;;3.30;;
67528;SDS011;54366;51.980;5.856;2023-04-01T15:35:41;3.28;;;3.08;;
67528;SDS011;54366;51.980;5.856;2023-04-01T15:42:42;3.80;;;3.50;;
67528;SDS011;54366;51.980;5.856;2023-04-01T15:48:35;3.63;;;3.33;;
67528;SDS011;54366;51.980;5.856;2023-04-01T15:54:47;3.50;;;3.20;;
67528;SDS011;54366;51.980;5.856;2023-04-01T15:58:05;3.42;;;3.20;;
67528;SDS011;54366;51.980;5.856;2023-04-01T16:01:26;3.42;;;3.13;;
67528;SDS011;54366;51.980;5.856;2023-04-01T16:11:18;9.77;;;8.88;;
67528;SDS011;54366;51.980;5.856;2023-04-01T16:15:08;5.13;;;4.72;;
67528;SDS011;54366;51.980;5.856;2023-04-01T16:20:23;19.42;;;16.45;;
67528;SDS011;54366;51.980;5.856;2023-04-01T16:30:03;4.40;;;4.00;;
67528;SDS011;54366;51.980;5.856;2023-04-01T16:33:12;3.25;;;3.05;;
67528;SDS011;54366;51.980;5.856;2023-04-01T16:36:13;3.17;;;2.90;;
67528;SDS011;54366;51.980;5.856;2023-04-01T16:45:35;16.58;;;11.35;;
67528;SDS011;54366;51.980;5.856;2023-04-01T16:48:21;6.63;;;5.13;;
67528;SDS011;54366;51.980;5.856;2023-04-01T16:51:02;6.65;;;5.90;;
67528;SDS011;54366;51.980;5.856;2023-04-01T16:53:44;5.60;;;5.20;;
67528;SDS011;54366;51.980;5.856;2023-04-01T16:56:36;4.80;;;4.50;;
67528;SDS011;54366;51.980;5.856;2023-04-01T17:05:09;4.18;;;3.78;;
67528;SDS011;54366;51.980;5.856;2023-04-01T17:07:59;6.18;;;5.68;;
67528;SDS011;54366;51.980;5.856;2023-04-01T17:10:51;3.35;;;3.15;;
67528;SDS011;54366;51.980;5.856;2023-04-01T17:14:11;4.82;;;4.53;;
67528;SDS011;54366;51.980;5.856;2023-04-01T17:23:53;4.93;;;4.63;;
67528;SDS011;54366;51.980;5.856;2023-04-01T17:26:17;3.90;;;3.60;;
67528;SDS011;54366;51.980;5.856;2023-04-01T17:29:05;7.00;;;6.40;;
67528;SDS011;54366;51.980;5.856;2023-04-01T17:35:32;6.50;;;5.75;;
67528;SDS011;54366;51.980;5.856;2023-04-01T17:41:18;3.95;;;3.75;;
67528;SDS011;54366;51.980;5.856;2023-04-01T17:47:35;3.90;;;3.60;;
67528;SDS011;54366;51.980;5.856;2023-04-01T17:53:42;5.22;;;4.82;;
67528;SDS011;54366;51.980;5.856;2023-04-01T17:56:40;6.43;;;5.93;;
67528;SDS011;54366;51.980;5.856;2023-04-01T18:06:17;4.43;;;4.03;;
67528;SDS011;54366;51.980;5.856;2023-04-01T18:16:11;4.18;;;3.88;;
67528;SDS011;54366;51.980;5.856;2023-04-01T18:19:32;4.13;;;3.83;;
67528;SDS011;54366;51.980;5.856;2023-04-01T18:22:42;3.97;;;3.70;;
67528;SDS011;54366;51.980;5.856;2023-04-01T18:25:20;4.72;;;4.32;;
67528;SDS011;54366;51.980;5.856;2023-04-01T18:31:07;4.10;;;3.70;;
67528;SDS011;54366;51.980;5.856;2023-04-01T18:37:15;5.38;;;4.97;;
67528;SDS011;54366;51.980;5.856;2023-04-01T18:42:41;6.10;;;5.70;;
67528;SDS011;54366;51.980;5.856;2023-04-01T18:46:17;6.68;;;6.25;;
67528;SDS011;54366;51.980;5.856;2023-04-01T18:48:44;6.18;;;5.68;;
67528;SDS011;54366;51.980;5.856;2023-04-01T18:51:46;6.25;;;5.85;;
67528;SDS011;54366;51.980;5.856;2023-04-01T18:57:25;5.60;;;5.20;;
67528;SDS011;54366;51.980;5.856;2023-04-01T19:03:21;6.53;;;6.03;;
67528;SDS011;54366;51.980;5.856;2023-04-01T19:06:01;6.82;;;6.32;;
67528;SDS011;54366;51.980;5.856;2023-04-01T19:12:08;7.50;;;6.80;;
67528;SDS011;54366;51.980;5.856;2023-04-01T19:15:21;5.75;;;5.35;;
67528;SDS011;54366;51.980;5.856;2023-04-01T19:28:35;7.68;;;7.07;;
67528;SDS011;54366;51.980;5.856;2023-04-01T19:31:42;5.50;;;5.20;;
67528;SDS011;54366;51.980;5.856;2023-04-01T19:34:41;6.40;;;5.90;;
67528;SDS011;54366;51.980;5.856;2023-04-01T19:40:45;5.45;;;5.07;;
67528;SDS011;54366;51.980;5.856;2023-04-01T19:46:55;5.85;;;5.45;;
67528;SDS011;54366;51.980;5.856;2023-04-01T19:50:40;5.45;;;5.05;;
67528;SDS011;54366;51.980;5.856;2023-04-01T19:52:59;6.03;;;5.63;;
67528;SDS011;54366;51.980;5.856;2023-04-01T20:05:24;9.30;;;8.50;;
67528;SDS011;54366;51.980;5.856;2023-04-01T20:11:55;8.13;;;7.53;;
67528;SDS011;54366;51.980;5.856;2023-04-01T20:14:27;7.45;;;6.85;;
67528;SDS011;54366;51.980;5.856;2023-04-01T20:20:20;7.00;;;6.50;;
67528;SDS011;54366;51.980;5.856;2023-04-01T20:23:06;7.80;;;7.20;;
67528;SDS011;54366;51.980;5.856;2023-04-01T20:26:04;7.15;;;6.65;;
67528;SDS011;54366;51.980;5.856;2023-04-01T20:29:04;7.35;;;6.75;;
67528;SDS011;54366;51.980;5.856;2023-04-01T20:32:13;6.97;;;6.47;;
67528;SDS011;54366;51.980;5.856;2023-04-01T20:35:50;6.10;;;5.70;;
67528;SDS011;54366;51.980;5.856;2023-04-01T20:41:26;7.80;;;7.20;;
67528;SDS011;54366;51.980;5.856;2023-04-01T20:44:12;7.18;;;6.68;;
67528;SDS011;54366;51.980;5.856;2023-04-01T20:48:23;6.78;;;6.28;;
67528;SDS011;54366;51.980;5.856;2023-04-01T20:50:11;9.57;;;8.77;;
67528;SDS011;54366;51.980;5.856;2023-04-01T20:53:07;8.20;;;7.60;;
67528;SDS011;54366;51.980;5.856;2023-04-01T21:02:48;9.65;;;8.85;;
67528;SDS011;54366;51.980;5.856;2023-04-01T21:05:35;9.13;;;8.43;;
67528;SDS011;54366;51.980;5.856;2023-04-01T21:08:40;9.05;;;8.25;;
67528;SDS011;54366;51.980;5.856;2023-04-01T21:18:57;9.82;;;9.00;;
67528;SDS011;54366;51.980;5.856;2023-04-01T21:22:52;9.63;;;8.82;;
67528;SDS011;54366;51.980;5.856;2023-04-01T21:25:36;9.57;;;8.77;;
67528;SDS011;54366;51.980;5.856;2023-04-01T21:28:35;9.38;;;8.57;;
67528;SDS011;54366;51.980;5.856;2023-04-01T21:49:36;6.85;;;6.35;;
67528;SDS011;54366;51.980;5.856;2023-04-01T21:55:03;8.00;;;7.40;;
67528;SDS011;54366;51.980;5.856;2023-04-01T22:07:21;6.95;;;6.45;;
67528;SDS011;54366;51.980;5.856;2023-04-01T22:13:42;7.72;;;7.13;;
67528;SDS011;54366;51.980;5.856;2023-04-01T22:16:39;7.43;;;6.82;;
67528;SDS011;54366;51.980;5.856;2023-04-01T22:19:31;7.90;;;7.18;;
67528;SDS011;54366;51.980;5.856;2023-04-01T22:26:05;7.65;;;7.05;;
67528;SDS011;54366;51.980;5.856;2023-04-01T22:28:52;8.23;;;7.63;;
67528;SDS011;54366;51.980;5.856;2023-04-01T22:31:45;8.18;;;7.57;;
67528;SDS011;54366;51.980;5.856;2023-04-01T22:34:39;8.68;;;7.97;;
67528;SDS011;54366;51.980;5.856;2023-04-01T22:37:33;7.60;;;7.00;;
67528;SDS011;54366;51.980;5.856;2023-04-01T22:46:36;7.03;;;6.43;;
67528;SDS011;54366;51.980;5.856;2023-04-01T22:49:41;6.35;;;5.85;;
67528;SDS011;54366;51.980;5.856;2023-04-01T22:52:38;7.00;;;6.40;;
67528;SDS011;54366;51.980;5.856;2023-04-01T23:00:58;7.00;;;6.25;;
67528;SDS011;54366;51.980;5.856;2023-04-01T23:06:14;8.00;;;7.18;;
67528;SDS011;54366;51.980;5.856;2023-04-01T23:09:01;6.55;;;6.05;;
67528;SDS011;54366;51.980;5.856;2023-04-01T23:11:57;6.75;;;6.18;;
67528;SDS011;54366;51.980;5.856;2023-04-01T23:14:41;8.25;;;7.55;;
67528;SDS011;54366;51.980;5.856;2023-04-01T23:17:47;7.18;;;6.57;;
67528;SDS011;54366;51.980;5.856;2023-04-01T23:20:56;8.80;;;8.00;;
67528;SDS011;54366;51.980;5.856;2023-04-01T23:24:05;9.57;;;8.70;;
67528;SDS011;54366;51.980;5.856;2023-04-01T23:26:53;10.02;;;9.23;;
67528;SDS011;54366;51.980;5.856;2023-04-01T23:32:22;9.85;;;8.95;;
67528;SDS011;54366;51.980;5.856;2023-04-01T23:34:58;9.80;;;9.00;;
67528;SDS011;54366;51.980;5.856;2023-04-01T23:37:32;11.13;;;10.18;;
67528;SDS011;54366;51.980;5.856;2023-04-01T23:40:06;10.13;;;9.13;;
67528;SDS011;54366;51.980;5.856;2023-04-01T23:42:45;11.52;;;10.52;;
67528;SDS011;54366;51.980;5.856;2023-04-01T23:45:18;12.15;;;11.05;;
67528;SDS011;54366;51.980;5.856;2023-04-01T23:47:53;9.30;;;8.50;;
67528;SDS011;54366;51.980;5.856;2023-04-01T23:50:26;9.95;;;9.05;;
67528;SDS011;54366;51.980;5.856;2023-04-01T23:53:02;8.57;;;7.78;;
67528;SDS011;54366;51.980;5.856;2023-04-01T23:55:39;9.45;;;8.52;;
67528;SDS011;54366;51.980;5.856;2023-04-01T23:58:20;8.02;;;7.20;;
